createdAt,value
2022-11-09T00:05:01.451Z,92.70
2022-11-09T00:13:09.498Z,92.40
2022-11-09T00:21:17.022Z,92.60
2022-11-09T00:29:25.326Z,92.60
2022-11-09T00:37:32.929Z,92.60
2022-11-09T00:45:41.275Z,92.50
2022-11-09T00:53:48.528Z,93.00
2022-11-09T01:01:56.936Z,93.20
2022-11-09T01:10:02.667Z,93.40
2022-11-09T01:18:11.214Z,93.10
2022-11-09T01:26:18.424Z,92.60
2022-11-09T01:34:27.169Z,93.40
2022-11-09T01:42:33.033Z,94.10
2022-11-09T01:50:52.300Z,93.70
2022-11-09T01:59:02.301Z,93.70
2022-11-09T02:07:11.859Z,93.10
2022-11-09T02:15:18.473Z,93.50
2022-11-09T02:23:28.328Z,93.20
2022-11-09T02:31:37.455Z,93.00
2022-11-09T02:39:45.655Z,93.60
2022-11-09T02:47:54.126Z,94.60
2022-11-09T02:56:02.546Z,93.70
2022-11-09T03:04:08.617Z,93.70
2022-11-09T03:12:29.923Z,93.80
2022-11-09T03:20:42.848Z,93.30
2022-11-09T03:28:51.343Z,93.70
2022-11-09T03:36:57.133Z,93.40
2022-11-09T03:45:05.870Z,94.10
2022-11-09T03:53:12.615Z,93.60
2022-11-09T04:01:20.789Z,93.80
2022-11-09T04:09:26.283Z,94.40
2022-11-09T04:17:34.432Z,94.10
2022-11-09T04:25:41.345Z,94.10
2022-11-09T04:33:53.326Z,94.40
2022-11-09T04:41:58.978Z,93.90
2022-11-09T04:50:20.845Z,93.40
2022-11-09T04:58:47.747Z,94.30
2022-11-09T05:06:55.810Z,93.80
2022-11-09T05:15:01.662Z,93.00
2022-11-09T05:23:22.605Z,93.20
2022-11-09T05:31:28.772Z,94.10
2022-11-09T05:39:39.916Z,93.80
2022-11-09T05:47:46.810Z,93.80
2022-11-09T05:55:55.283Z,94.10
2022-11-09T06:04:00.819Z,93.40
2022-11-09T06:12:10.647Z,93.70
2022-11-09T06:20:16.276Z,94.50
2022-11-09T06:28:25.864Z,94.60
2022-11-09T06:36:31.348Z,94.80
2022-11-09T06:44:39.485Z,95.10
2022-11-09T06:52:46.138Z,95.10
2022-11-09T07:00:55.214Z,94.40
2022-11-09T07:09:03.486Z,95.00
2022-11-09T07:17:09.142Z,95.40
2022-11-09T07:25:17.373Z,95.30
2022-11-09T07:33:23.994Z,94.00
2022-11-09T07:41:34.917Z,94.50
2022-11-09T07:49:40.614Z,93.20
2022-11-09T07:57:48.526Z,93.50
2022-11-09T08:05:54.248Z,93.60
2022-11-09T08:14:02.203Z,93.40
2022-11-09T08:22:07.477Z,93.30
2022-11-09T08:30:18.474Z,92.60
2022-11-09T08:38:24.408Z,93.40
2022-11-09T08:46:37.028Z,92.70
2022-11-09T08:54:47.835Z,92.00
2022-11-09T09:02:55.914Z,90.80
2022-11-09T09:11:04.440Z,90.70
2022-11-09T09:19:12.505Z,90.70
2022-11-09T09:27:17.961Z,90.70
2022-11-09T09:35:26.026Z,90.30
2022-11-09T09:43:39.728Z,91.10
2022-11-09T09:51:54.995Z,90.80
2022-11-09T10:00:04.341Z,90.20
2022-11-09T10:08:30.386Z,90.60
2022-11-09T10:16:44.047Z,90.10
2022-11-09T10:25:20.697Z,90.10
2022-11-09T10:33:25.721Z,89.30
2022-11-09T10:41:40.232Z,89.00
2022-11-09T10:50:20.527Z,88.90
2022-11-09T10:58:51.234Z,88.20
2022-11-09T11:07:20.957Z,88.20
2022-11-09T11:15:48.973Z,86.80
2022-11-09T11:24:17.224Z,86.70
2022-11-09T11:32:48.960Z,87.40
2022-11-09T11:41:38.634Z,87.00
2022-11-09T11:50:28.103Z,85.90
2022-11-09T11:59:09.887Z,86.20
2022-11-09T12:07:44.945Z,85.40
2022-11-09T12:16:14.347Z,86.40
2022-11-09T12:24:46.580Z,85.80
2022-11-09T12:33:15.442Z,85.30
2022-11-09T12:41:43.598Z,84.40
2022-11-09T12:50:09.373Z,84.60
2022-11-09T12:58:37.871Z,86.00
2022-11-09T13:07:20.979Z,88.80
2022-11-09T13:16:22.234Z,88.20
2022-11-09T13:24:55.851Z,87.60
2022-11-09T13:33:29.781Z,87.80
2022-11-09T13:41:53.948Z,87.60
2022-11-09T13:50:25.318Z,88.20
2022-11-09T13:58:51.229Z,89.30
2022-11-09T14:07:23.422Z,89.30
2022-11-09T14:15:54.733Z,89.60
2022-11-09T14:24:24.302Z,89.70
2022-11-09T14:32:54.270Z,89.60
2022-11-09T14:41:25.766Z,89.80
2022-11-09T14:49:49.978Z,89.70
2022-11-09T14:58:18.207Z,89.90
2022-11-09T15:06:49.129Z,89.40
2022-11-09T15:15:27.270Z,89.50
2022-11-09T15:23:52.901Z,89.80
2022-11-09T15:32:23.956Z,89.70
2022-11-09T15:40:47.982Z,90.20
2022-11-09T15:49:24.311Z,90.20
2022-11-09T15:57:48.621Z,90.10
2022-11-09T16:06:22.459Z,90.20
2022-11-09T16:14:46.456Z,90.20
2022-11-09T16:23:12.910Z,90.30
2022-11-09T16:31:52.791Z,90.40
2022-11-09T16:40:20.154Z,90.60
2022-11-09T16:48:44.031Z,90.60
2022-11-09T16:57:10.914Z,90.70
2022-11-09T17:05:34.900Z,90.70
2022-11-09T17:14:02.729Z,90.70
2022-11-09T17:22:26.650Z,90.90
2022-11-09T17:30:57.638Z,91.00
2022-11-09T17:39:21.949Z,91.10
2022-11-09T17:47:48.647Z,91.30
2022-11-09T17:56:28.799Z,91.20
2022-11-09T18:04:55.663Z,91.20
2022-11-09T18:13:27.703Z,91.40
2022-11-09T18:21:56.009Z,91.40
2022-11-09T18:30:20.623Z,91.40
2022-11-09T18:38:47.845Z,91.30
2022-11-09T18:47:13.834Z,91.50
2022-11-09T18:55:40.536Z,91.80
2022-11-09T19:04:04.517Z,91.90
2022-11-09T19:12:32.821Z,91.90
2022-11-09T19:21:04.300Z,91.80
2022-11-09T19:29:31.035Z,92.00
2022-11-09T19:37:55.089Z,91.80
2022-11-09T19:46:21.781Z,91.80
2022-11-09T19:54:45.816Z,91.90
2022-11-09T20:03:12.819Z,92.40
2022-11-09T20:11:49.473Z,92.20
2022-11-09T20:20:17.643Z,92.10
2022-11-09T20:28:41.846Z,91.90
2022-11-09T20:37:08.733Z,91.90
2022-11-09T20:45:33.552Z,92.00
2022-11-09T20:54:06.577Z,91.90
2022-11-09T21:02:31.528Z,92.00
2022-11-09T21:10:58.353Z,92.00
2022-11-09T21:19:22.183Z,92.00
2022-11-09T21:28:01.396Z,91.80
2022-11-09T21:36:25.526Z,91.60
2022-11-09T21:44:52.092Z,91.90
2022-11-09T21:53:16.198Z,91.80
2022-11-09T22:01:43.103Z,91.90
2022-11-09T22:10:11.528Z,91.70
2022-11-09T22:18:51.297Z,92.40
2022-11-09T22:27:15.429Z,92.20
2022-11-09T22:35:42.094Z,92.10
2022-11-09T22:44:06.267Z,92.00
2022-11-09T22:52:32.799Z,92.20
2022-11-09T23:00:56.843Z,92.40
2022-11-09T23:09:23.416Z,92.10
2022-11-09T23:17:59.581Z,91.80
2022-11-09T23:26:27.253Z,91.80
2022-11-09T23:34:51.396Z,91.50
2022-11-09T23:43:17.654Z,91.40
2022-11-09T23:51:41.424Z,91.50
